createdAt,value
2022-12-28T00:03:31.768Z,1.10
2022-12-28T00:08:33.406Z,0.80
2022-12-28T00:13:35.953Z,0.85
2022-12-28T00:18:37.681Z,0.95
2022-12-28T00:23:39.245Z,1.10
2022-12-28T00:28:40.960Z,0.80
2022-12-28T00:33:43.045Z,0.60
2022-12-28T00:38:44.870Z,0.80
2022-12-28T00:43:46.353Z,1.02
2022-12-28T00:48:47.780Z,1.50
2022-12-28T00:53:49.267Z,1.92
2022-12-28T00:58:50.846Z,0.98
2022-12-28T01:03:55.175Z,1.10
2022-12-28T01:08:56.659Z,0.82
2022-12-28T01:14:01.101Z,0.82
2022-12-28T01:19:05.498Z,1.15
2022-12-28T01:24:07.311Z,0.88
2022-12-28T01:29:09.045Z,1.33
2022-12-28T01:34:10.554Z,1.00
2022-12-28T01:39:11.990Z,1.15
2022-12-28T01:44:13.419Z,0.75
2022-12-28T01:49:20.202Z,1.05
2022-12-28T01:54:26.396Z,1.30
2022-12-28T01:59:32.564Z,0.88
2022-12-28T02:04:34.303Z,0.90
2022-12-28T02:09:42.384Z,1.45
2022-12-28T02:14:44.727Z,1.50
2022-12-28T02:19:48.892Z,1.85
2022-12-28T02:25:12.035Z,1.70
2022-12-28T02:30:15.477Z,1.38
2022-12-28T02:35:26.116Z,2.60
2022-12-28T02:40:54.267Z,1.92
2022-12-28T02:45:55.798Z,1.70
2022-12-28T02:51:38.409Z,1.27
2022-12-28T02:57:09.265Z,1.25
2022-12-28T03:02:35.989Z,1.33
2022-12-28T03:08:05.831Z,2.30
2022-12-28T03:13:13.051Z,1.65
2022-12-28T03:18:16.946Z,2.05
2022-12-28T03:23:23.357Z,1.50
2022-12-28T03:28:29.246Z,1.15
2022-12-28T03:38:58.187Z,1.33
2022-12-28T03:44:07.953Z,1.70
2022-12-28T03:49:09.739Z,2.53
2022-12-28T03:54:15.576Z,1.15
2022-12-28T04:04:19.030Z,1.55
2022-12-28T04:09:20.481Z,1.52
2022-12-28T04:14:22.003Z,1.40
2022-12-28T04:19:23.491Z,1.23
2022-12-28T04:24:25.108Z,1.52
2022-12-28T04:29:26.670Z,1.17
2022-12-28T04:34:28.223Z,1.50
2022-12-28T04:39:54.284Z,1.20
2022-12-28T04:44:51.168Z,0.90
2022-12-28T04:49:52.654Z,0.98
2022-12-28T04:54:54.075Z,0.98
2022-12-28T04:59:55.562Z,1.13
2022-12-28T05:04:57.129Z,0.73
2022-12-28T05:09:58.640Z,1.35
2022-12-28T05:15:00.165Z,0.65
2022-12-28T05:20:02.073Z,0.30
2022-12-28T05:25:03.989Z,0.40
2022-12-28T05:30:06.281Z,0.30
2022-12-28T05:35:08.432Z,0.20
2022-12-28T05:40:10.403Z,0.60
2022-12-28T05:45:11.925Z,0.38
2022-12-28T05:50:13.359Z,0.50
2022-12-28T05:55:14.925Z,0.52
2022-12-28T06:00:16.569Z,0.35
2022-12-28T06:05:17.985Z,0.13
2022-12-28T06:10:19.393Z,0.17
2022-12-28T06:15:21.028Z,0.20
2022-12-28T06:20:22.489Z,0.25
2022-12-28T06:25:23.921Z,0.20
2022-12-28T06:30:25.520Z,0.20
2022-12-28T06:35:27.159Z,0.10
2022-12-28T06:41:02.443Z,0.25
2022-12-28T06:45:55.472Z,0.00
2022-12-28T06:50:59.170Z,0.25
2022-12-28T06:56:03.616Z,0.30
2022-12-28T07:01:11.837Z,0.10
2022-12-28T07:06:15.895Z,0.20
2022-12-28T07:11:20.391Z,0.10
2022-12-28T07:16:23.907Z,0.10
2022-12-28T07:21:28.271Z,0.30
2022-12-28T07:26:32.322Z,0.10
2022-12-28T07:31:44.886Z,0.00
2022-12-28T07:36:48.887Z,0.10
2022-12-28T07:41:50.370Z,0.10
2022-12-28T07:46:51.965Z,0.10
2022-12-28T07:51:53.600Z,0.10
2022-12-28T07:56:55.115Z,0.08
2022-12-28T08:01:56.685Z,0.10
2022-12-28T08:06:58.262Z,0.00
2022-12-28T08:11:59.808Z,0.30
2022-12-28T08:17:01.262Z,0.00
2022-12-28T08:22:02.724Z,0.10
2022-12-28T08:27:04.192Z,0.20
2022-12-28T08:32:05.774Z,0.15
2022-12-28T08:37:07.233Z,0.10
2022-12-28T08:42:08.845Z,0.10
2022-12-28T08:47:10.349Z,0.30
2022-12-28T08:52:11.875Z,0.20
2022-12-28T08:57:13.415Z,0.20
2022-12-28T09:02:14.952Z,0.10
2022-12-28T09:07:16.554Z,0.10
2022-12-28T09:12:17.981Z,0.47
2022-12-28T09:17:19.399Z,0.10
2022-12-28T09:22:20.812Z,0.20
2022-12-28T09:27:22.441Z,0.10
2022-12-28T09:32:23.953Z,0.40
2022-12-28T09:37:25.394Z,0.25
2022-12-28T09:42:30.085Z,1.00
2022-12-28T09:47:47.979Z,0.10
2022-12-28T09:53:25.156Z,0.10
2022-12-28T09:58:28.881Z,0.10
2022-12-28T10:03:37.407Z,0.00
2022-12-28T10:08:44.522Z,0.10
2022-12-28T10:13:54.454Z,0.10
2022-12-28T10:18:56.838Z,0.03
2022-12-28T10:29:23.150Z,0.00
2022-12-28T10:34:24.719Z,0.10
2022-12-28T10:39:31.069Z,0.00
2022-12-28T10:44:39.848Z,0.15
2022-12-28T10:50:02.754Z,0.10
2022-12-28T10:55:27.509Z,0.10
2022-12-28T11:00:29.015Z,0.00
2022-12-28T11:05:30.528Z,0.10
2022-12-28T11:10:31.960Z,0.38
2022-12-28T11:15:33.664Z,0.10
2022-12-28T11:20:39.396Z,0.10
2022-12-28T11:30:44.450Z,0.00
2022-12-28T11:35:47.053Z,0.45
2022-12-28T11:40:51.436Z,0.20
2022-12-28T11:46:04.958Z,0.20
2022-12-28T11:51:14.670Z,0.20
2022-12-28T11:56:18.673Z,0.00
2022-12-28T12:01:28.973Z,0.00
2022-12-28T12:06:42.411Z,0.22
2022-12-28T12:11:44.232Z,0.00
2022-12-28T12:16:51.555Z,0.13
2022-12-28T12:22:02.166Z,0.03
2022-12-28T12:27:19.381Z,0.00
2022-12-28T12:32:30.827Z,0.08
2022-12-28T12:37:55.197Z,0.17
2022-12-28T12:43:21.480Z,0.00
2022-12-28T12:48:47.627Z,0.10
2022-12-28T12:59:05.557Z,0.00
2022-12-28T13:04:35.155Z,0.03
2022-12-28T13:09:36.871Z,0.30
2022-12-28T13:14:38.536Z,0.40
2022-12-28T13:19:39.980Z,0.20
2022-12-28T13:24:45.246Z,0.00
2022-12-28T13:29:54.413Z,0.10
2022-12-28T13:34:55.896Z,0.10
2022-12-28T13:40:16.497Z,0.00
2022-12-28T13:45:19.754Z,0.15
2022-12-28T13:50:26.615Z,0.20
2022-12-28T13:55:48.819Z,0.55
2022-12-28T14:00:52.600Z,0.10
2022-12-28T14:05:57.793Z,0.10
2022-12-28T14:11:00.442Z,0.30
2022-12-28T14:16:03.918Z,0.30
2022-12-28T14:21:05.694Z,0.65
2022-12-28T14:26:19.880Z,0.43
2022-12-28T14:31:26.925Z,0.80
2022-12-28T14:36:35.755Z,0.32
2022-12-28T14:41:45.579Z,0.20
2022-12-28T14:46:47.335Z,0.28
2022-12-28T14:51:48.849Z,0.43
2022-12-28T14:56:59.960Z,0.20
2022-12-28T15:02:02.028Z,0.25
2022-12-28T15:07:08.995Z,0.30
2022-12-28T15:12:18.247Z,0.60
2022-12-28T15:17:19.820Z,0.25
2022-12-28T15:22:21.372Z,0.40
2022-12-28T15:27:22.812Z,0.20
2022-12-28T15:32:24.392Z,0.30
2022-12-28T15:37:25.836Z,0.65
2022-12-28T15:42:31.501Z,0.15
2022-12-28T15:47:36.526Z,0.40
2022-12-28T15:52:38.171Z,0.10
2022-12-28T15:57:39.648Z,0.10
2022-12-28T16:02:41.371Z,0.20
2022-12-28T16:07:42.958Z,0.10
2022-12-28T16:12:44.859Z,0.10
2022-12-28T16:17:55.097Z,0.28
2022-12-28T16:22:58.591Z,0.28
2022-12-28T16:27:59.987Z,0.08
2022-12-28T16:33:01.491Z,0.10
2022-12-28T16:38:02.978Z,0.10
2022-12-28T16:43:07.925Z,0.10
2022-12-28T16:48:14.791Z,0.30
2022-12-28T16:53:20.129Z,0.28
2022-12-28T16:58:25.875Z,0.40
2022-12-28T17:03:27.358Z,0.30
2022-12-28T17:08:29.196Z,0.20
2022-12-28T17:13:30.633Z,0.20
2022-12-28T17:18:32.167Z,0.25
2022-12-28T17:23:33.589Z,0.28
2022-12-28T17:28:35.043Z,0.20
2022-12-28T17:33:39.801Z,0.30
2022-12-28T17:38:42.074Z,0.20
2022-12-28T17:43:52.073Z,0.25
2022-12-28T17:48:55.164Z,0.40
2022-12-28T17:53:57.226Z,0.40
2022-12-28T17:58:59.355Z,0.35
2022-12-28T18:04:00.817Z,0.50
2022-12-28T18:09:02.306Z,0.75
2022-12-28T18:14:03.735Z,0.32
2022-12-28T18:19:05.276Z,1.40
2022-12-28T18:24:08.827Z,0.88
2022-12-28T18:29:10.278Z,0.30
2022-12-28T18:34:11.745Z,0.30
2022-12-28T18:39:13.236Z,0.50
2022-12-28T18:44:14.699Z,0.35
2022-12-28T18:49:16.206Z,0.38
2022-12-28T18:54:17.645Z,0.30
2022-12-28T18:59:19.112Z,0.20
2022-12-28T19:04:21.128Z,0.50
2022-12-28T19:09:22.782Z,0.95
2022-12-28T19:14:24.253Z,0.60
2022-12-28T19:19:25.709Z,0.30
2022-12-28T19:24:27.182Z,0.70
2022-12-28T19:29:28.741Z,0.25
2022-12-28T19:34:30.395Z,0.20
2022-12-28T19:39:31.971Z,0.13
2022-12-28T19:44:33.555Z,0.32
2022-12-28T19:49:35.085Z,0.30
2022-12-28T19:54:36.610Z,0.28
2022-12-28T19:59:38.268Z,0.20
2022-12-28T20:04:39.774Z,0.28
2022-12-28T20:09:41.427Z,1.20
2022-12-28T20:14:42.983Z,0.40
2022-12-28T20:19:44.744Z,0.32
2022-12-28T20:24:46.215Z,0.47
2022-12-28T20:29:47.679Z,0.30
2022-12-28T20:34:49.136Z,0.35
2022-12-28T20:39:50.650Z,0.50
2022-12-28T20:44:52.110Z,0.40
2022-12-28T20:49:53.624Z,0.47
2022-12-28T20:54:55.060Z,0.20
2022-12-28T20:59:56.505Z,0.73
2022-12-28T21:04:57.976Z,0.40
2022-12-28T21:09:59.393Z,0.60
2022-12-28T21:15:00.864Z,0.20
2022-12-28T21:20:02.293Z,0.50
2022-12-28T21:25:04.272Z,0.20
2022-12-28T21:30:06.445Z,0.30
2022-12-28T21:35:08.381Z,0.70
2022-12-28T21:40:10.531Z,0.20
2022-12-28T21:45:12.204Z,0.25
2022-12-28T21:50:13.772Z,0.77
2022-12-28T21:55:15.333Z,0.20
2022-12-28T22:00:16.998Z,0.45
2022-12-28T22:05:18.494Z,0.25
2022-12-28T22:10:20.011Z,0.45
2022-12-28T22:15:24.134Z,0.20
2022-12-28T22:20:26.660Z,0.40
2022-12-28T22:25:29.933Z,0.30
2022-12-28T22:30:33.119Z,0.50
2022-12-28T22:35:34.914Z,0.20
2022-12-28T22:40:36.403Z,0.28
2022-12-28T22:45:37.994Z,0.52
2022-12-28T22:50:43.175Z,0.30
2022-12-28T22:55:45.155Z,0.20
2022-12-28T23:00:46.668Z,0.30
2022-12-28T23:05:52.303Z,0.22
2022-12-28T23:10:56.524Z,0.47
2022-12-28T23:16:03.675Z,0.40
2022-12-28T23:21:05.346Z,0.40
2022-12-28T23:26:09.730Z,0.32
2022-12-28T23:31:11.235Z,0.20
2022-12-28T23:36:12.655Z,0.10
2022-12-28T23:41:14.141Z,0.30
2022-12-28T23:46:15.652Z,0.10
2022-12-28T23:51:17.214Z,0.30
2022-12-28T23:56:18.651Z,0.38
